createdAt,value
2018-12-31T00:01:56.325Z,8.40
2018-12-31T00:04:27.552Z,8.40
2018-12-31T00:06:58.757Z,8.40
2018-12-31T00:09:29.937Z,8.38
2018-12-31T00:12:01.196Z,8.37
2018-12-31T00:14:32.312Z,8.36
2018-12-31T00:17:03.543Z,8.35
2018-12-31T00:19:34.741Z,8.35
2018-12-31T00:22:05.980Z,8.35
2018-12-31T00:24:37.203Z,8.33
2018-12-31T00:27:08.346Z,8.35
2018-12-31T00:29:39.557Z,8.36
2018-12-31T00:32:10.737Z,8.36
2018-12-31T00:34:42.080Z,8.38
2018-12-31T00:37:13.295Z,8.40
2018-12-31T00:39:44.660Z,8.40
2018-12-31T00:42:15.887Z,8.40
2018-12-31T00:44:47.116Z,8.41
2018-12-31T00:47:18.398Z,8.41
2018-12-31T00:49:49.555Z,8.42
2018-12-31T00:52:20.794Z,8.43
2018-12-31T00:54:52.014Z,8.45
2018-12-31T00:57:23.289Z,8.47
2018-12-31T00:59:54.478Z,8.45
2018-12-31T01:02:25.867Z,8.45
2018-12-31T01:04:57.284Z,8.45
2018-12-31T01:07:28.471Z,8.45
2018-12-31T01:09:59.763Z,8.46
2018-12-31T01:12:30.964Z,8.44
2018-12-31T01:15:02.153Z,8.44
2018-12-31T01:17:33.557Z,8.45
2018-12-31T01:20:04.761Z,8.44
2018-12-31T01:22:36.170Z,8.44
2018-12-31T01:25:07.473Z,8.43
2018-12-31T01:27:38.806Z,8.42
2018-12-31T01:30:10.085Z,8.41
2018-12-31T01:32:41.263Z,8.42
2018-12-31T01:35:12.475Z,8.42
2018-12-31T01:37:43.652Z,8.43
2018-12-31T01:40:14.847Z,8.42
2018-12-31T01:42:46.032Z,8.40
2018-12-31T01:45:17.422Z,8.41
2018-12-31T01:47:48.602Z,8.41
2018-12-31T01:50:19.764Z,8.38
2018-12-31T01:52:51.921Z,8.40
2018-12-31T01:55:23.213Z,8.40
2018-12-31T01:57:54.414Z,8.40
2018-12-31T02:00:25.830Z,8.41
2018-12-31T02:02:57.042Z,8.42
2018-12-31T02:05:28.257Z,8.44
2018-12-31T02:07:59.537Z,8.45
2018-12-31T02:10:30.779Z,8.44
2018-12-31T02:13:01.939Z,8.45
2018-12-31T02:15:34.334Z,8.46
2018-12-31T02:18:05.570Z,8.46
2018-12-31T02:20:36.745Z,8.46
2018-12-31T02:23:07.982Z,8.48
2018-12-31T02:25:39.198Z,8.47
2018-12-31T02:28:10.406Z,8.44
2018-12-31T02:30:41.698Z,8.45
2018-12-31T02:33:12.965Z,8.46
2018-12-31T02:35:44.278Z,8.46
2018-12-31T02:38:15.608Z,8.48
2018-12-31T02:40:46.802Z,8.49
2018-12-31T02:43:17.946Z,8.50
2018-12-31T02:45:49.234Z,8.49
2018-12-31T02:48:20.533Z,8.49
2018-12-31T02:50:51.931Z,8.50
2018-12-31T02:53:23.280Z,8.51
2018-12-31T02:55:54.547Z,8.51
2018-12-31T02:58:25.864Z,8.52
2018-12-31T03:00:57.068Z,8.53
2018-12-31T03:03:28.286Z,8.55
2018-12-31T03:05:59.411Z,8.56
2018-12-31T03:08:30.708Z,8.57
2018-12-31T03:11:01.942Z,8.57
2018-12-31T03:13:33.093Z,8.57
2018-12-31T03:16:04.294Z,8.58
2018-12-31T03:18:35.601Z,8.59
2018-12-31T03:21:06.887Z,8.59
2018-12-31T03:23:38.084Z,8.61
2018-12-31T03:26:09.298Z,8.60
2018-12-31T03:28:40.469Z,8.58
2018-12-31T03:31:11.705Z,8.58
2018-12-31T03:33:42.899Z,8.60
2018-12-31T03:36:14.075Z,8.61
2018-12-31T03:38:45.421Z,8.61
2018-12-31T03:41:16.639Z,8.63
2018-12-31T03:43:47.854Z,8.64
2018-12-31T03:46:19.027Z,8.65
2018-12-31T03:48:50.330Z,8.65
2018-12-31T03:51:21.465Z,8.67
2018-12-31T03:53:52.629Z,8.67
2018-12-31T03:56:23.942Z,8.69
2018-12-31T03:58:55.134Z,8.68
2018-12-31T04:01:26.377Z,8.68
2018-12-31T04:03:57.594Z,8.68
2018-12-31T04:06:28.810Z,8.69
2018-12-31T04:09:00.221Z,8.67
2018-12-31T04:11:32.157Z,8.67
2018-12-31T04:14:03.443Z,8.67
2018-12-31T04:16:34.565Z,8.67
2018-12-31T04:19:05.833Z,8.66
2018-12-31T04:21:37.087Z,8.65
2018-12-31T04:24:08.340Z,8.66
2018-12-31T04:26:39.561Z,8.65
2018-12-31T04:29:10.677Z,8.66
2018-12-31T04:31:41.924Z,8.66
2018-12-31T04:34:13.298Z,8.68
2018-12-31T04:36:44.575Z,8.69
2018-12-31T04:39:15.809Z,8.67
2018-12-31T04:41:47.031Z,8.65
2018-12-31T04:44:18.405Z,8.64
2018-12-31T04:46:50.573Z,8.65
2018-12-31T04:49:21.951Z,8.64
2018-12-31T04:51:53.100Z,8.65
2018-12-31T04:54:24.366Z,8.65
2018-12-31T04:56:55.714Z,8.66
2018-12-31T04:59:26.935Z,8.64
2018-12-31T05:01:58.215Z,8.63
2018-12-31T05:04:29.431Z,8.61
2018-12-31T05:07:00.610Z,8.61
2018-12-31T05:09:31.913Z,8.62
2018-12-31T05:12:04.373Z,8.64
2018-12-31T05:14:35.566Z,8.65
2018-12-31T05:17:06.718Z,8.64
2018-12-31T05:19:37.950Z,8.66
2018-12-31T05:22:09.148Z,8.67
2018-12-31T05:24:40.322Z,8.69
2018-12-31T05:27:11.641Z,8.69
2018-12-31T05:29:45.346Z,8.70
2018-12-31T05:32:16.612Z,8.72
2018-12-31T05:34:47.819Z,8.73
2018-12-31T05:37:19.111Z,8.74
2018-12-31T05:39:50.355Z,8.76
2018-12-31T05:42:21.781Z,8.76
2018-12-31T05:44:53.544Z,8.77
2018-12-31T05:47:24.839Z,8.79
2018-12-31T05:49:56.033Z,8.79
2018-12-31T05:52:27.302Z,8.80
2018-12-31T05:54:58.570Z,8.81
2018-12-31T05:57:29.903Z,8.81
2018-12-31T06:00:01.096Z,8.81
2018-12-31T06:02:32.330Z,8.80
2018-12-31T06:05:03.576Z,8.75
2018-12-31T06:07:34.812Z,8.65
2018-12-31T06:10:06.026Z,8.55
2018-12-31T06:12:37.299Z,8.49
2018-12-31T06:15:08.511Z,8.47
2018-12-31T06:17:39.909Z,8.48
2018-12-31T06:20:11.247Z,8.49
2018-12-31T06:22:42.705Z,8.50
2018-12-31T06:25:14.115Z,8.53
2018-12-31T06:27:45.341Z,8.54
2018-12-31T06:30:16.498Z,8.57
2018-12-31T06:32:47.747Z,8.56
2018-12-31T06:35:18.952Z,8.57
2018-12-31T06:37:50.185Z,8.57
2018-12-31T06:40:21.379Z,8.58
2018-12-31T06:42:52.700Z,8.60
2018-12-31T06:45:23.915Z,8.63
2018-12-31T06:47:55.179Z,8.64
2018-12-31T06:50:26.495Z,8.65
2018-12-31T06:52:57.811Z,8.66
2018-12-31T06:55:29.005Z,8.67
2018-12-31T06:58:00.259Z,8.68
2018-12-31T07:00:31.443Z,8.67
2018-12-31T07:03:02.753Z,8.67
2018-12-31T07:05:34.047Z,8.68
2018-12-31T07:08:05.312Z,8.69
2018-12-31T07:10:36.606Z,8.69
2018-12-31T07:13:07.762Z,8.69
2018-12-31T07:15:38.944Z,8.69
2018-12-31T07:18:10.133Z,8.68
2018-12-31T07:20:41.496Z,8.70
2018-12-31T07:23:12.726Z,8.71
2018-12-31T07:25:43.952Z,8.72
2018-12-31T07:28:15.127Z,8.73
2018-12-31T07:30:46.542Z,8.74
2018-12-31T07:33:17.781Z,8.75
2018-12-31T07:35:48.964Z,8.75
2018-12-31T07:38:20.174Z,8.76
2018-12-31T07:40:51.408Z,8.77
2018-12-31T07:43:22.585Z,8.76
2018-12-31T07:45:53.748Z,8.77
2018-12-31T07:48:24.999Z,8.77
2018-12-31T07:50:56.430Z,8.79
2018-12-31T07:53:27.672Z,8.80
2018-12-31T07:55:58.875Z,8.79
2018-12-31T07:58:30.141Z,8.81
2018-12-31T08:01:01.284Z,8.81
2018-12-31T08:03:32.463Z,8.82
2018-12-31T08:06:03.784Z,8.83
2018-12-31T08:08:34.903Z,8.83
2018-12-31T08:11:06.062Z,8.84
2018-12-31T08:13:37.328Z,8.84
2018-12-31T08:16:08.511Z,8.84
2018-12-31T08:18:39.811Z,8.84
2018-12-31T08:21:11.094Z,8.82
2018-12-31T08:23:42.310Z,8.81
2018-12-31T08:26:13.697Z,8.78
2018-12-31T08:28:45.217Z,8.74
2018-12-31T08:31:16.501Z,8.74
2018-12-31T08:33:47.846Z,8.74
2018-12-31T08:36:19.147Z,8.76
2018-12-31T08:38:50.473Z,8.77
2018-12-31T08:41:21.833Z,8.78
2018-12-31T08:43:53.094Z,8.80
2018-12-31T08:46:24.385Z,8.82
2018-12-31T08:48:55.685Z,8.83
2018-12-31T08:51:26.910Z,8.84
2018-12-31T08:54:01.101Z,8.85
2018-12-31T08:56:32.350Z,8.84
2018-12-31T08:59:04.029Z,8.86
2018-12-31T09:01:35.457Z,8.86
2018-12-31T09:04:07.082Z,8.87
2018-12-31T09:06:38.928Z,8.88
2018-12-31T09:09:10.325Z,8.89
2018-12-31T09:11:41.704Z,8.92
2018-12-31T09:14:13.220Z,8.94
2018-12-31T09:16:44.591Z,8.95
2018-12-31T09:19:16.066Z,8.96
2018-12-31T09:21:47.664Z,8.96
2018-12-31T09:24:19.134Z,8.94
2018-12-31T09:26:50.713Z,8.95
2018-12-31T09:29:22.319Z,8.96
2018-12-31T09:31:53.650Z,8.97
2018-12-31T09:34:25.090Z,8.98
2018-12-31T09:36:56.364Z,9.00
2018-12-31T09:39:27.600Z,9.00
2018-12-31T09:41:58.801Z,9.02
2018-12-31T09:44:30.027Z,9.02
2018-12-31T09:47:01.201Z,9.04
2018-12-31T09:49:32.491Z,9.05
2018-12-31T09:52:03.705Z,9.07
2018-12-31T09:54:34.965Z,9.08
2018-12-31T09:57:06.305Z,9.10
2018-12-31T09:59:37.556Z,9.11
2018-12-31T10:02:08.702Z,9.13
2018-12-31T10:04:40.012Z,9.15
2018-12-31T10:07:11.173Z,9.16
2018-12-31T10:09:42.445Z,9.18
2018-12-31T10:12:13.647Z,9.20
2018-12-31T10:14:44.878Z,9.23
2018-12-31T10:17:16.038Z,9.25
2018-12-31T10:19:47.272Z,9.27
2018-12-31T10:22:18.415Z,9.27
2018-12-31T10:24:49.722Z,9.26
2018-12-31T10:27:20.878Z,9.27
2018-12-31T10:29:52.105Z,9.30
2018-12-31T10:32:23.344Z,9.31
2018-12-31T10:34:54.717Z,9.35
2018-12-31T10:37:25.966Z,9.36
2018-12-31T10:39:57.133Z,9.35
2018-12-31T10:42:28.428Z,9.30
2018-12-31T10:44:59.610Z,9.29
2018-12-31T10:47:30.803Z,9.28
2018-12-31T10:50:01.991Z,9.25
2018-12-31T10:52:33.196Z,9.21
2018-12-31T10:55:04.390Z,9.17
2018-12-31T10:57:35.540Z,9.15
2018-12-31T11:00:08.308Z,9.14
2018-12-31T11:02:39.513Z,9.14
2018-12-31T11:05:10.712Z,9.14
2018-12-31T11:07:41.916Z,9.13
2018-12-31T11:10:13.171Z,9.15
2018-12-31T11:12:44.448Z,9.18
2018-12-31T11:15:15.746Z,9.18
2018-12-31T11:17:47.001Z,9.20
2018-12-31T11:20:18.153Z,9.23
2018-12-31T11:22:49.399Z,9.24
2018-12-31T11:25:20.614Z,9.28
2018-12-31T11:27:51.811Z,9.31
2018-12-31T11:30:23.162Z,9.35
2018-12-31T11:32:54.370Z,9.38
2018-12-31T11:35:25.587Z,9.43
2018-12-31T11:37:56.839Z,9.45
2018-12-31T11:40:28.019Z,9.49
2018-12-31T11:42:59.529Z,9.50
2018-12-31T11:45:30.715Z,9.51
2018-12-31T11:48:02.002Z,9.53
2018-12-31T11:50:33.209Z,9.56
2018-12-31T11:53:04.448Z,9.58
2018-12-31T11:55:35.681Z,9.62
2018-12-31T11:58:06.851Z,9.65
2018-12-31T12:00:38.041Z,9.68
2018-12-31T12:03:09.224Z,9.70
2018-12-31T12:05:40.427Z,9.72
2018-12-31T12:08:11.635Z,9.74
2018-12-31T12:10:42.812Z,9.77
2018-12-31T12:13:14.038Z,9.79
2018-12-31T12:15:45.578Z,9.81
2018-12-31T12:18:16.905Z,9.84
2018-12-31T12:20:48.162Z,9.87
2018-12-31T12:23:19.345Z,9.87
2018-12-31T12:25:50.499Z,9.89
2018-12-31T12:28:21.699Z,9.91
2018-12-31T12:30:52.932Z,9.93
2018-12-31T12:33:24.268Z,9.96
2018-12-31T12:35:55.483Z,9.97
2018-12-31T12:38:26.723Z,9.99
2018-12-31T12:40:57.922Z,10.00
2018-12-31T12:43:29.170Z,10.03
2018-12-31T12:46:00.336Z,10.04
2018-12-31T12:48:32.041Z,10.07
2018-12-31T12:51:03.308Z,10.08
2018-12-31T12:53:34.469Z,10.07
2018-12-31T12:56:05.687Z,10.07
2018-12-31T12:58:37.091Z,10.05
2018-12-31T13:01:08.363Z,10.02
2018-12-31T13:03:39.561Z,9.99
2018-12-31T13:06:10.773Z,9.95
2018-12-31T13:08:41.977Z,9.89
2018-12-31T13:11:13.274Z,9.82
2018-12-31T13:13:44.636Z,9.74
2018-12-31T13:16:15.871Z,9.71
2018-12-31T13:18:47.057Z,9.69
2018-12-31T13:21:18.335Z,9.69
2018-12-31T13:23:50.591Z,9.67
2018-12-31T13:26:21.765Z,9.67
2018-12-31T13:28:53.013Z,9.68
2018-12-31T13:31:24.316Z,9.67
2018-12-31T13:33:55.507Z,9.68
2018-12-31T13:36:26.707Z,9.69
2018-12-31T13:38:57.909Z,9.69
2018-12-31T13:41:29.518Z,9.70
2018-12-31T13:44:00.678Z,9.69
2018-12-31T13:46:32.050Z,9.64
2018-12-31T13:49:03.254Z,9.61
2018-12-31T13:51:34.597Z,9.58
2018-12-31T13:54:05.787Z,9.54
2018-12-31T13:56:37.214Z,9.53
2018-12-31T13:59:08.482Z,9.53
2018-12-31T14:01:39.654Z,9.54
2018-12-31T14:04:10.976Z,9.57
2018-12-31T14:06:42.182Z,9.59
2018-12-31T14:09:13.379Z,9.61
2018-12-31T14:11:44.555Z,9.63
2018-12-31T14:16:59.323Z,9.64
2018-12-31T14:19:30.654Z,9.66
2018-12-31T14:22:01.860Z,9.69
2018-12-31T14:24:33.182Z,9.72
2018-12-31T14:27:04.340Z,9.74
2018-12-31T14:29:35.505Z,9.77
2018-12-31T14:32:06.734Z,9.79
2018-12-31T14:34:38.026Z,9.80
2018-12-31T14:37:09.196Z,9.83
2018-12-31T14:39:40.429Z,9.84
2018-12-31T14:42:11.822Z,9.86
2018-12-31T14:44:43.317Z,9.86
2018-12-31T14:47:18.318Z,9.87
2018-12-31T14:49:47.446Z,9.87
2018-12-31T14:52:18.663Z,9.86
2018-12-31T14:54:50.164Z,9.87
2018-12-31T14:57:21.409Z,9.88
2018-12-31T14:59:52.553Z,9.89
2018-12-31T15:02:23.782Z,9.90
2018-12-31T15:04:55.092Z,9.92
2018-12-31T15:07:26.286Z,9.92
2018-12-31T15:09:57.561Z,9.93
2018-12-31T15:12:28.712Z,9.93
2018-12-31T15:14:59.922Z,9.93
2018-12-31T15:17:31.288Z,9.94
2018-12-31T15:20:02.510Z,9.93
2018-12-31T15:22:33.817Z,9.95
2018-12-31T15:25:05.018Z,9.95
2018-12-31T15:27:36.486Z,9.97
2018-12-31T15:30:08.671Z,9.96
2018-12-31T15:32:40.020Z,9.96
2018-12-31T15:35:11.225Z,9.96
2018-12-31T15:37:42.936Z,9.98
2018-12-31T15:40:14.197Z,9.97
2018-12-31T15:42:45.394Z,9.95
2018-12-31T15:45:16.690Z,9.94
2018-12-31T15:47:47.922Z,9.93
2018-12-31T15:50:19.171Z,9.91
2018-12-31T15:52:50.389Z,9.88
2018-12-31T15:55:21.683Z,9.85
2018-12-31T15:57:52.866Z,9.84
2018-12-31T16:00:24.144Z,9.86
2018-12-31T16:02:55.645Z,9.85
2018-12-31T16:05:26.929Z,9.84
2018-12-31T16:07:58.129Z,9.82
2018-12-31T16:10:30.279Z,9.82
2018-12-31T16:13:01.763Z,9.82
2018-12-31T16:15:33.048Z,9.81
2018-12-31T16:18:05.831Z,9.80
2018-12-31T16:20:37.069Z,9.77
2018-12-31T16:23:08.397Z,9.73
2018-12-31T16:25:39.776Z,9.69
2018-12-31T16:28:10.977Z,9.63
2018-12-31T16:30:42.254Z,9.61
2018-12-31T16:33:13.600Z,9.57
2018-12-31T16:35:44.896Z,9.55
2018-12-31T16:38:16.199Z,9.52
2018-12-31T16:40:47.428Z,9.50
2018-12-31T16:43:18.873Z,9.49
2018-12-31T16:45:50.218Z,9.46
2018-12-31T16:48:21.467Z,9.43
2018-12-31T16:50:52.765Z,9.41
2018-12-31T16:53:24.378Z,9.38
2018-12-31T16:55:56.758Z,9.38
2018-12-31T16:58:28.132Z,9.35
2018-12-31T17:00:59.493Z,9.34
2018-12-31T17:03:30.726Z,9.29
2018-12-31T17:06:01.931Z,9.28
2018-12-31T17:08:33.367Z,9.32
2018-12-31T17:11:04.785Z,9.35
2018-12-31T17:13:36.161Z,9.37
2018-12-31T17:16:07.806Z,9.38
2018-12-31T17:18:39.055Z,9.40
2018-12-31T17:21:10.195Z,9.42
2018-12-31T17:23:41.428Z,9.44
2018-12-31T17:26:12.828Z,9.46
2018-12-31T17:28:44.223Z,9.46
2018-12-31T17:31:15.671Z,9.48
2018-12-31T17:33:47.056Z,9.50
2018-12-31T17:36:18.331Z,9.51
2018-12-31T17:38:49.644Z,9.53
2018-12-31T17:41:21.009Z,9.53
2018-12-31T17:43:52.235Z,9.55
2018-12-31T17:46:23.477Z,9.55
2018-12-31T17:48:55.204Z,9.56
2018-12-31T17:51:26.533Z,9.56
2018-12-31T17:53:57.966Z,9.58
2018-12-31T17:56:29.181Z,9.58
2018-12-31T17:59:00.515Z,9.58
2018-12-31T18:01:32.188Z,9.59
2018-12-31T18:04:03.634Z,9.61
2018-12-31T18:06:35.179Z,9.61
2018-12-31T18:09:08.074Z,9.61
2018-12-31T18:11:39.334Z,9.59
2018-12-31T18:14:10.519Z,9.59
2018-12-31T18:16:41.790Z,9.60
2018-12-31T18:19:12.963Z,9.62
2018-12-31T18:21:44.349Z,9.61
2018-12-31T18:24:15.625Z,9.62
2018-12-31T18:26:48.039Z,9.63
2018-12-31T18:29:19.359Z,9.64
2018-12-31T18:31:50.973Z,9.64
2018-12-31T18:34:22.449Z,9.63
2018-12-31T18:36:53.896Z,9.64
2018-12-31T18:39:25.312Z,9.64
2018-12-31T18:41:56.559Z,9.64
2018-12-31T18:44:27.928Z,9.65
2018-12-31T18:46:59.273Z,9.65
2018-12-31T18:49:30.979Z,9.65
2018-12-31T18:52:02.330Z,9.63
2018-12-31T18:54:33.527Z,9.63
2018-12-31T18:57:04.877Z,9.64
2018-12-31T18:59:36.115Z,9.64
2018-12-31T19:02:07.462Z,9.68
2018-12-31T19:04:39.281Z,9.69
2018-12-31T19:07:10.631Z,9.69
2018-12-31T19:09:42.300Z,9.70
2018-12-31T19:12:13.589Z,9.69
2018-12-31T19:14:45.040Z,9.71
2018-12-31T19:17:16.604Z,9.72
2018-12-31T19:19:48.061Z,9.74
2018-12-31T19:22:19.497Z,9.73
2018-12-31T19:25:11.434Z,9.73
2018-12-31T19:27:49.333Z,9.72
2018-12-31T19:30:20.711Z,9.71
2018-12-31T19:32:52.287Z,9.71
2018-12-31T19:35:23.613Z,9.72
2018-12-31T19:37:54.872Z,9.73
2018-12-31T19:40:26.069Z,9.74
2018-12-31T19:42:57.326Z,9.74
2018-12-31T19:45:29.054Z,9.76
2018-12-31T19:48:00.368Z,9.78
2018-12-31T19:50:31.711Z,9.78
2018-12-31T19:53:03.016Z,9.80
2018-12-31T19:55:34.523Z,9.84
2018-12-31T19:58:05.760Z,9.88
2018-12-31T20:00:37.019Z,9.90
2018-12-31T20:03:08.629Z,9.93
2018-12-31T20:05:40.223Z,9.94
2018-12-31T20:08:11.636Z,9.93
2018-12-31T20:10:58.120Z,9.93
2018-12-31T20:13:34.680Z,9.95
2018-12-31T20:16:06.009Z,9.96
2018-12-31T20:18:37.510Z,9.99
2018-12-31T20:21:08.671Z,10.03
2018-12-31T20:23:40.392Z,10.04
2018-12-31T20:26:11.961Z,10.07
2018-12-31T20:28:43.297Z,10.07
2018-12-31T20:31:14.662Z,10.09
2018-12-31T20:33:45.904Z,10.12
2018-12-31T20:36:17.378Z,10.14
2018-12-31T20:38:48.741Z,10.16
2018-12-31T20:41:20.125Z,10.19
2018-12-31T20:43:51.405Z,10.19
2018-12-31T20:46:22.652Z,10.20
2018-12-31T20:48:53.909Z,10.19
2018-12-31T20:51:25.273Z,10.22
2018-12-31T20:53:56.725Z,10.24
2018-12-31T20:56:28.003Z,10.23
2018-12-31T20:58:59.241Z,10.23
2018-12-31T21:01:30.716Z,10.22
2018-12-31T21:04:01.991Z,10.20
2018-12-31T21:06:33.414Z,10.20
2018-12-31T21:09:06.983Z,10.20
2018-12-31T21:11:38.544Z,10.21
2018-12-31T21:14:09.761Z,10.23
2018-12-31T21:16:41.156Z,10.23
2018-12-31T21:19:12.379Z,10.22
2018-12-31T21:21:43.798Z,10.18
2018-12-31T21:24:15.160Z,10.18
2018-12-31T21:26:55.726Z,10.17
2018-12-31T21:29:27.532Z,10.17
2018-12-31T21:31:58.978Z,10.17
2018-12-31T21:34:30.433Z,10.16
2018-12-31T21:37:01.669Z,10.18
2018-12-31T21:39:32.864Z,10.15
2018-12-31T21:42:05.295Z,10.15
2018-12-31T21:44:38.010Z,10.14
2018-12-31T21:47:09.321Z,10.13
2018-12-31T21:49:40.604Z,10.13
2018-12-31T21:52:11.861Z,10.14
2018-12-31T21:54:43.602Z,10.11
2018-12-31T21:57:16.081Z,10.09
2018-12-31T21:59:48.460Z,10.08
2018-12-31T22:02:24.336Z,10.06
2018-12-31T22:04:58.545Z,10.04
2018-12-31T22:07:30.840Z,10.03
2018-12-31T22:10:03.034Z,10.00
2018-12-31T22:12:34.615Z,9.96
2018-12-31T22:15:10.026Z,9.93
2018-12-31T22:17:41.621Z,9.91
2018-12-31T22:20:12.990Z,9.88
2018-12-31T22:22:44.304Z,9.85
2018-12-31T22:25:15.772Z,9.82
2018-12-31T22:27:47.157Z,9.80
2018-12-31T22:30:18.542Z,9.77
2018-12-31T22:32:49.791Z,9.74
2018-12-31T22:35:21.121Z,9.71
2018-12-31T22:37:52.721Z,9.69
2018-12-31T22:40:24.053Z,9.66
2018-12-31T22:42:55.648Z,9.61
2018-12-31T22:45:26.944Z,9.57
2018-12-31T22:47:58.435Z,9.57
2018-12-31T22:50:29.704Z,9.54
2018-12-31T22:53:00.957Z,9.50
2018-12-31T22:55:32.243Z,9.47
2018-12-31T22:58:03.489Z,9.45
2018-12-31T23:00:36.687Z,9.43
2018-12-31T23:03:10.288Z,9.38
2018-12-31T23:05:41.582Z,9.37
2018-12-31T23:08:12.808Z,9.37
2018-12-31T23:10:44.946Z,9.35
2018-12-31T23:13:16.294Z,9.36
2018-12-31T23:15:47.606Z,9.32
2018-12-31T23:18:18.812Z,9.31
2018-12-31T23:20:50.377Z,9.28
2018-12-31T23:23:21.547Z,9.25
2018-12-31T23:25:53.084Z,9.25
2018-12-31T23:28:24.470Z,9.22
2018-12-31T23:30:56.167Z,9.21
2018-12-31T23:33:27.449Z,9.19
2018-12-31T23:35:58.764Z,9.18
2018-12-31T23:38:30.040Z,9.20
2018-12-31T23:41:01.412Z,9.19
2018-12-31T23:43:32.726Z,9.19
2018-12-31T23:46:04.023Z,9.20
2018-12-31T23:48:35.325Z,9.19
2018-12-31T23:51:06.537Z,9.21
2018-12-31T23:53:38.216Z,9.22
2018-12-31T23:56:09.504Z,9.24
2018-12-31T23:58:40.821Z,9.25
